Terminal Aerodrome Forecast
Issued by NWS Raleigh/Durham, NC

Home | Current Version | Previous Version | Text Only | Print | Product List | Glossary On
Versions: 1 2 3 4 5 6 7 8 9 10 11 12 13 14 15 16 17 18 19 20 21 22 23 24 25 26 27 28 29 30
514
FTUS42 KRAH 161131
TAFGSO
TAF
KGSO 161131Z 1612/1712 00000KT P6SM SCT250
     FM161500 21005KT P6SM SCT080 BKN250
     FM170000 18005KT P6SM OVC080
     FM170600 22003KT 6SM -SN OVC050
     FM170900 35005KT 3SM -SN BR OVC015=

USA.gov is the U.S. government's official web portal to all federal, state and local government web resources and services.